createdAt,value
2022-10-15T08:12:25.075Z,41.83
2022-10-15T08:17:19.730Z,40.63
2022-10-15T08:22:14.298Z,40.90
2022-10-15T08:53:50.954Z,36.70
2022-10-15T08:58:52.398Z,36.73
2022-10-15T09:19:05.654Z,38.47
2022-10-15T09:24:03.297Z,38.20
2022-10-15T09:29:10.507Z,38.87
2022-10-15T09:34:14.659Z,42.13
2022-10-15T09:39:26.014Z,48.13
2022-10-15T09:44:22.655Z,49.10
2022-10-15T09:49:22.388Z,45.10
2022-10-15T09:54:37.460Z,47.53
2022-10-15T10:04:32.010Z,48.93
2022-10-15T10:09:30.371Z,51.40
2022-10-15T10:14:30.271Z,50.53
2022-10-15T10:19:24.150Z,50.00
2022-10-15T10:24:28.559Z,51.73
2022-10-15T10:29:35.406Z,48.90
2022-10-15T10:34:35.061Z,47.97
2022-10-15T10:39:49.222Z,47.40
2022-10-15T10:44:46.788Z,46.50
2022-10-15T10:49:42.209Z,47.23
2022-10-15T10:54:38.184Z,45.23
2022-10-15T10:59:46.036Z,44.23
2022-10-15T11:04:42.261Z,43.97
2022-10-15T11:09:52.297Z,42.27
2022-10-15T11:14:55.858Z,43.80
2022-10-15T11:25:24.498Z,42.67
2022-10-15T11:30:34.849Z,43.77
2022-10-15T11:35:53.079Z,43.10
2022-10-15T11:41:03.514Z,44.57
2022-10-15T11:46:11.694Z,44.30
2022-10-15T11:51:14.668Z,43.97
2022-10-15T11:56:15.243Z,43.93
2022-10-15T12:01:18.434Z,42.88
2022-10-15T12:06:17.994Z,44.47
2022-10-15T12:11:30.370Z,44.35
2022-10-15T12:16:46.047Z,43.33
2022-10-15T12:21:41.109Z,43.53
2022-10-15T12:26:36.120Z,41.33
2022-10-15T12:37:05.784Z,42.58
2022-10-15T12:41:59.918Z,42.70
2022-10-15T12:46:54.357Z,44.10
2022-10-15T12:51:52.668Z,43.67
2022-10-15T12:56:49.772Z,42.53
2022-10-15T13:01:53.454Z,41.90
2022-10-15T13:06:49.182Z,42.15
2022-10-15T13:11:46.065Z,39.92
2022-10-15T13:16:43.777Z,41.53
2022-10-15T13:22:00.924Z,40.75
2022-10-15T13:27:01.779Z,39.45
2022-10-15T13:31:58.219Z,42.50
2022-10-15T13:36:52.389Z,40.88
2022-10-15T13:41:47.910Z,40.80
2022-10-15T13:46:41.480Z,41.05
2022-10-15T13:51:39.051Z,40.33
2022-10-15T13:56:34.513Z,40.70
2022-10-15T14:01:31.935Z,40.95
2022-10-15T14:06:26.817Z,41.55
2022-10-15T14:11:20.709Z,37.58
2022-10-15T14:16:21.094Z,39.95
2022-10-15T14:21:18.439Z,39.60
2022-10-15T14:26:14.091Z,41.17
2022-10-15T14:31:08.562Z,38.75
2022-10-15T14:36:07.676Z,40.00
2022-10-15T14:41:07.868Z,38.58
2022-10-15T14:46:03.399Z,45.72
2022-10-15T14:51:00.259Z,38.53
2022-10-15T14:55:58.250Z,40.08
2022-10-15T15:01:00.516Z,39.20
2022-10-15T15:05:56.227Z,38.60
2022-10-15T15:10:51.282Z,39.50
2022-10-15T15:15:44.915Z,38.92
2022-10-15T15:20:41.708Z,39.15
2022-10-15T15:25:38.322Z,40.95
2022-10-15T15:30:34.444Z,40.40
2022-10-15T15:35:32.178Z,40.72
2022-10-15T15:40:27.174Z,40.25
2022-10-15T15:45:23.721Z,39.85
2022-10-15T15:50:18.746Z,40.05
2022-10-15T15:55:13.049Z,41.58
2022-10-15T16:00:11.359Z,41.63
2022-10-15T16:05:05.742Z,49.00
2022-10-15T16:09:59.399Z,43.20
2022-10-15T16:14:54.708Z,41.33
2022-10-15T16:19:50.300Z,41.78
2022-10-15T16:24:43.941Z,43.35
2022-10-15T16:29:37.853Z,44.47
2022-10-15T16:34:31.949Z,45.58
2022-10-15T16:39:27.259Z,45.60
